Time;durP1;ratioP1;P1;durP2;ratioP2;P2;SDS_P1;SDS_P2;PMS_P1;PMS_P2;Temp;Humidity;BMP_temperature;BMP_pressure;BME280_temperature;BME280_humidity;BME280_pressure;Samples;Min_cycle;Max_cycle;Signal;HPM_P1;HPM_P2
2021/08/16 00:01:22;;;;;;;4.73;3.90;;;;;;;16.66;96.52;100053.56;5066434;28;20702;-71
2021/08/16 00:03:49;;;;;;;4.73;3.83;;;;;;;16.63;96.70;100046.69;5066703;28;20717;-71
2021/08/16 00:06:15;;;;;;;5.27;3.70;;;;;;;16.58;95.74;100050.56;5063458;28;20217;-71
2021/08/16 00:08:41;;;;;;;7.13;4.17;;;;;;;16.59;97.02;100034.66;5064236;28;20206;-71
2021/08/16 00:11:08;;;;;;;4.53;3.70;;;;;;;16.53;96.10;100036.81;5060382;28;20873;-71
2021/08/16 00:13:34;;;;;;;4.10;3.57;;;;;;;16.48;96.74;100037.13;5063694;28;20215;-72
2021/08/16 00:16:01;;;;;;;5.60;3.50;;;;;;;16.53;98.08;100031.56;5058771;28;20293;-71
2021/08/16 00:18:30;;;;;;;5.67;4.00;;;;;;;16.46;95.89;100034.56;5061405;28;20273;-71
2021/08/16 00:20:56;;;;;;;6.37;4.00;;;;;;;16.49;99.13;100028.28;5065970;28;20252;-71
2021/08/16 00:23:23;;;;;;;5.50;3.70;;;;;;;16.45;98.14;100027.59;5058632;28;20211;-71
2021/08/16 00:25:49;;;;;;;8.20;3.73;;;;;;;16.45;98.70;100021.50;5064335;28;20220;-71
2021/08/16 00:28:16;;;;;;;4.57;3.60;;;;;;;16.39;98.15;100014.84;5069137;28;20202;-71
2021/08/16 00:30:42;;;;;;;4.73;4.07;;;;;;;16.26;98.00;100013.88;5065720;28;21013;-71
2021/08/16 00:33:09;;;;;;;4.60;3.90;;;;;;;16.25;98.57;100012.16;5063541;28;20742;-71
2021/08/16 00:35:37;;;;;;;4.73;4.03;;;;;;;16.26;99.98;100000.72;5067191;28;20216;-71
2021/08/16 00:38:05;;;;;;;4.20;3.43;;;;;;;16.24;99.18;100003.44;5065492;28;20224;-70
2021/08/16 00:40:32;;;;;;;5.63;4.10;;;;;;;16.16;99.04;99995.13;5065804;28;20265;-71
2021/08/16 00:42:58;;;;;;;5.30;3.80;;;;;;;16.17;100.00;99988.13;5064431;28;20727;-71
2021/08/16 00:45:26;;;;;;;4.87;3.90;;;;;;;16.14;100.00;99986.50;5066749;28;20204;-71
2021/08/16 00:47:53;;;;;;;5.77;3.83;;;;;;;16.03;99.48;99981.88;5074227;28;20213;-72
2021/08/16 00:50:19;;;;;;;5.80;4.00;;;;;;;15.99;100.00;99980.38;5056177;28;20224;-71
2021/08/16 00:52:47;;;;;;;6.07;3.80;;;;;;;15.99;100.00;99982.13;5069801;28;20201;-71
2021/08/16 00:55:14;;;;;;;5.20;3.93;;;;;;;15.93;100.00;99983.34;5068552;28;20194;-71
2021/08/16 00:57:41;;;;;;;7.07;4.30;;;;;;;15.82;100.00;99983.16;5051675;28;20203;-71
2021/08/16 01:00:09;;;;;;;4.57;3.70;;;;;;;15.80;100.00;99982.41;5066659;28;20719;-71
2021/08/16 01:02:39;;;;;;;4.90;3.97;;;;;;;15.71;100.00;99984.56;5069075;28;20831;-71
2021/08/16 01:05:07;;;;;;;4.73;3.77;;;;;;;15.64;100.00;99980.63;5064820;28;20590;-71
2021/08/16 01:07:35;;;;;;;6.13;4.57;;;;;;;15.63;100.00;99978.06;5067374;28;20217;-70
2021/08/16 01:10:05;;;;;;;5.77;4.23;;;;;;;15.58;100.00;99980.94;5066076;28;20227;-71
2021/08/16 01:12:32;;;;;;;5.47;4.30;;;;;;;15.60;100.00;99973.84;5066218;28;20198;-71
2021/08/16 01:15:00;;;;;;;5.63;4.23;;;;;;;15.53;100.00;99972.47;5062643;28;20700;-71
2021/08/16 01:17:26;;;;;;;5.83;4.60;;;;;;;15.55;100.00;99970.63;5065959;28;20434;-71
2021/08/16 01:19:53;;;;;;;6.97;4.47;;;;;;;15.55;100.00;99959.25;5063940;28;20231;-71
2021/08/16 01:22:20;;;;;;;6.10;4.70;;;;;;;15.40;100.00;99958.38;5065694;28;20206;-71
2021/08/16 01:24:46;;;;;;;5.17;4.17;;;;;;;15.27;100.00;99945.94;5068315;28;20207;-71
2021/08/16 01:27:15;;;;;;;6.70;4.50;;;;;;;15.21;100.00;99943.63;5071461;28;20653;-71
2021/08/16 01:33:29;;;;;;;5.13;4.47;;;;;;;15.22;100.00;99934.84;5060893;28;20191;-71
2021/08/16 01:35:56;;;;;;;6.50;4.73;;;;;;;15.22;100.00;99924.34;5068180;28;20574;-71
2021/08/16 01:38:26;;;;;;;6.33;4.63;;;;;;;15.23;100.00;99928.66;5066986;28;20192;-70
2021/08/16 01:40:53;;;;;;;5.47;4.23;;;;;;;15.18;100.00;99930.69;5068066;28;20921;-71
2021/08/16 01:43:21;;;;;;;5.60;4.83;;;;;;;15.11;100.00;99924.94;5069946;28;20202;-71
2021/08/16 01:45:47;;;;;;;4.87;4.23;;;;;;;15.05;100.00;99929.69;5076151;28;20202;-70
2021/08/16 01:48:14;;;;;;;5.90;4.33;;;;;;;14.98;100.00;99929.16;5069429;28;20213;-71
2021/08/16 01:50:41;;;;;;;6.50;4.70;;;;;;;15.04;100.00;99928.84;5060594;28;20698;-71
2021/08/16 01:53:07;;;;;;;5.60;4.50;;;;;;;14.97;100.00;99932.75;5072509;28;20212;-71
2021/08/16 01:55:34;;;;;;;6.87;4.50;;;;;;;14.90;100.00;99926.97;5071322;28;20298;-71
2021/08/16 01:58:00;;;;;;;5.40;4.30;;;;;;;14.89;100.00;99927.06;5068111;28;20780;-71
2021/08/16 02:00:28;;;;;;;6.83;4.50;;;;;;;14.79;100.00;99929.34;5067403;28;20256;-71
2021/08/16 02:02:54;;;;;;;6.90;4.57;;;;;;;14.76;100.00;99921.66;5081547;28;20209;-71
2021/08/16 02:05:21;;;;;;;5.30;4.40;;;;;;;14.80;100.00;99925.78;5068266;28;20209;-71
2021/08/16 02:07:47;;;;;;;6.17;5.00;;;;;;;14.67;100.00;99915.13;5068426;28;20221;-70
2021/08/16 02:10:14;;;;;;;6.97;4.93;;;;;;;14.61;100.00;99915.44;5077709;28;20975;-70
2021/08/16 02:12:41;;;;;;;6.30;4.80;;;;;;;14.60;100.00;99916.38;5072858;28;20202;-71
2021/08/16 02:15:10;;;;;;;7.03;5.00;;;;;;;14.63;100.00;99910.94;5073692;28;20206;-71
2021/08/16 02:17:38;;;;;;;7.73;5.30;;;;;;;14.57;100.00;99908.66;5067954;28;20200;-72
2021/08/16 02:20:05;;;;;;;7.83;5.00;;;;;;;14.47;100.00;99907.44;5066317;28;20595;-71
2021/08/16 02:22:32;;;;;;;6.57;5.37;;;;;;;14.46;100.00;99913.59;5061737;28;20204;-71
2021/08/16 02:24:58;;;;;;;6.40;5.23;;;;;;;14.36;100.00;99921.13;5075472;28;20224;-71
2021/08/16 02:27:25;;;;;;;5.40;4.70;;;;;;;14.51;100.00;99922.94;5062672;28;20243;-70
2021/08/16 02:29:51;;;;;;;6.70;5.27;;;;;;;14.38;100.00;99927.97;5066363;28;20240;-71
2021/08/16 02:32:17;;;;;;;7.10;5.47;;;;;;;14.32;100.00;99932.72;5071337;28;20542;-71
2021/08/16 02:34:45;;;;;;;5.83;4.90;;;;;;;14.32;100.00;99930.09;5061508;28;20307;-71
2021/08/16 02:37:11;;;;;;;6.60;5.27;;;;;;;14.49;100.00;99931.81;5073125;28;20201;-71
2021/08/16 02:39:38;;;;;;;8.30;5.10;;;;;;;14.35;100.00;99924.66;5063498;28;20230;-71
2021/08/16 02:42:05;;;;;;;7.03;5.17;;;;;;;14.38;100.00;99916.66;5067235;28;20216;-71
2021/08/16 02:44:31;;;;;;;6.53;5.23;;;;;;;14.37;100.00;99913.19;5070247;28;20577;-71
2021/08/16 02:46:59;;;;;;;7.10;5.30;;;;;;;14.32;100.00;99909.97;5065282;28;20246;-71
2021/08/16 02:49:26;;;;;;;5.50;5.00;;;;;;;14.31;100.00;99907.41;5067430;28;20207;-71
2021/08/16 02:51:53;;;;;;;5.90;5.30;;;;;;;14.33;100.00;99905.56;5070774;28;20210;-71
2021/08/16 02:54:20;;;;;;;6.07;5.47;;;;;;;14.45;100.00;99896.19;5066084;28;20197;-71
2021/08/16 02:56:46;;;;;;;6.90;4.93;;;;;;;14.36;100.00;99905.41;5063822;28;20198;-71
2021/08/16 02:59:12;;;;;;;5.70;5.00;;;;;;;14.45;100.00;99890.94;5063872;28;20565;-71
2021/08/16 03:01:39;;;;;;;8.40;5.20;;;;;;;14.43;100.00;99892.81;5065876;28;20243;-71
2021/08/16 03:04:05;;;;;;;6.20;5.27;;;;;;;14.29;100.00;99899.63;5059587;28;20210;-71
2021/08/16 03:06:31;;;;;;;6.20;5.60;;;;;;;14.35;100.00;99903.69;5066652;28;20209;-71
2021/08/16 03:08:59;;;;;;;6.20;5.60;;;;;;;14.32;100.00;99904.72;5064146;28;20221;-71
2021/08/16 03:11:26;;;;;;;6.73;5.43;;;;;;;14.43;100.00;99892.81;5067648;28;20413;-71
2021/08/16 03:13:53;;;;;;;7.40;5.57;;;;;;;14.35;100.00;99898.44;5069774;28;20207;-71
2021/08/16 03:16:19;;;;;;;6.17;5.40;;;;;;;14.37;100.00;99892.22;5070067;28;20220;-71
2021/08/16 03:18:45;;;;;;;8.47;6.10;;;;;;;14.40;100.00;99893.81;5068560;28;20225;-71
2021/08/16 03:21:12;;;;;;;6.57;5.40;;;;;;;14.29;100.00;99898.78;5068859;28;20262;-71
2021/08/16 03:23:39;;;;;;;8.37;5.93;;;;;;;14.41;100.00;99892.88;5066611;28;20206;-71
2021/08/16 03:26:06;;;;;;;9.47;5.90;;;;;;;14.35;100.00;99903.69;5065016;28;20208;-72
2021/08/16 03:28:33;;;;;;;6.37;5.77;;;;;;;14.38;100.00;99901.75;5063819;28;20206;-72
2021/08/16 03:30:59;;;;;;;7.37;6.03;;;;;;;14.46;100.00;99893.50;5064742;28;20234;-71
2021/08/16 03:33:25;;;;;;;7.20;5.73;;;;;;;14.45;100.00;99888.31;5072253;28;20206;-71
2021/08/16 03:35:52;;;;;;;7.60;6.03;;;;;;;14.53;100.00;99886.97;5065638;28;20216;-71
2021/08/16 03:38:18;;;;;;;7.37;6.17;;;;;;;14.49;100.00;99889.84;5063659;28;20210;-71
2021/08/16 03:40:44;;;;;;;8.83;6.00;;;;;;;14.46;100.00;99893.50;5062489;28;20238;-70
2021/08/16 03:43:12;;;;;;;8.07;6.33;;;;;;;14.48;100.00;99883.75;5066267;28;20674;-71
2021/08/16 03:45:39;;;;;;;10.40;6.70;;;;;;;14.53;100.00;99886.97;5065498;28;20222;-71
2021/08/16 03:48:05;;;;;;;9.67;6.00;;;;;;;14.53;100.00;99894.84;5075426;28;20236;-70
2021/08/16 03:50:32;;;;;;;7.83;6.43;;;;;;;14.48;100.00;99896.88;5066338;28;20232;-71
2021/08/16 03:52:58;;;;;;;9.87;6.83;;;;;;;14.54;100.00;99895.69;5067786;28;20206;-71
2021/08/16 03:55:25;;;;;;;8.17;6.40;;;;;;;14.53;100.00;99896.63;5061701;28;20211;-71
2021/08/16 03:57:51;;;;;;;7.93;6.60;;;;;;;14.48;100.00;99896.03;5066024;28;20204;-71
2021/08/16 04:00:19;;;;;;;8.17;6.27;;;;;;;14.42;100.00;99899.81;5063021;28;20222;-71
2021/08/16 04:02:46;;;;;;;8.97;6.40;;;;;;;14.47;100.00;99894.31;5067270;28;20217;-71
2021/08/16 04:05:13;;;;;;;7.17;6.47;;;;;;;14.52;100.00;99893.16;5071895;28;20237;-71
2021/08/16 04:11:26;;;;;;;10.13;6.97;;;;;;;14.59;100.00;99888.44;5065272;28;20340;-71
2021/08/16 04:17:19;;;;;;;10.43;7.20;;;;;;;14.77;100.00;99879.59;5063982;28;20194;-71
2021/08/16 04:19:45;;;;;;;13.27;7.60;;;;;;;14.72;100.00;99879.00;5062721;28;20230;-71
2021/08/16 04:22:12;;;;;;;9.07;7.33;;;;;;;14.80;100.00;99878.56;5060200;28;20209;-71
2021/08/16 04:24:38;;;;;;;10.03;7.20;;;;;;;14.73;100.00;99878.03;5061262;28;20206;-71
2021/08/16 04:27:05;;;;;;;9.47;7.30;;;;;;;14.82;100.00;99878.47;5065513;28;20201;-71
2021/08/16 04:29:59;;;;;;;9.27;7.23;;;;;;;14.90;100.00;99869.25;5065131;28;20212;-71
2021/08/16 04:32:27;;;;;;;9.93;6.97;;;;;;;14.95;100.00;99876.84;5064979;28;20205;-71
2021/08/16 04:34:54;;;;;;;10.13;7.77;;;;;;;15.07;100.00;99872.69;5063837;28;20197;-71
2021/08/16 04:37:20;;;;;;;12.87;8.20;;;;;;;15.15;100.00;99870.47;5067790;28;20210;-71
2021/08/16 04:39:46;;;;;;;11.03;7.57;;;;;;;15.15;100.00;99881.81;5067840;28;20232;-71
2021/08/16 04:42:13;;;;;;;10.50;7.40;;;;;;;15.14;100.00;99884.53;5070718;28;20208;-71
2021/08/16 04:44:39;;;;;;;8.80;7.80;;;;;;;15.25;100.00;99878.66;5060761;28;20210;-71
2021/08/16 04:47:06;;;;;;;9.43;7.60;;;;;;;15.35;100.00;99874.56;5069364;28;20293;-71
2021/08/16 04:49:33;;;;;;;9.43;7.80;;;;;;;15.46;100.00;99876.56;5068789;28;20694;-71
2021/08/16 04:52:00;;;;;;;8.20;7.40;;;;;;;15.53;100.00;99870.88;5064265;28;20306;-71
2021/08/16 04:54:26;;;;;;;10.70;7.70;;;;;;;15.54;100.00;99869.09;5062972;28;20729;-71
2021/08/16 04:56:52;;;;;;;8.50;7.50;;;;;;;15.63;100.00;99872.97;5064514;28;20202;-71
2021/08/16 04:59:19;;;;;;;8.10;7.30;;;;;;;15.75;100.00;99872.28;5061388;28;20203;-71
2021/08/16 05:01:48;;;;;;;9.43;7.43;;;;;;;15.87;100.00;99865.44;5059609;28;20507;-71
2021/08/16 05:04:14;;;;;;;8.90;7.03;;;;;;;15.85;100.00;99868.16;5061093;28;20209;-71
2021/08/16 05:06:43;;;;;;;7.53;6.83;;;;;;;15.91;100.00;99872.19;5050305;28;20215;-71
2021/08/16 05:09:10;;;;;;;8.93;6.90;;;;;;;15.95;100.00;99863.19;5056013;28;20340;-71
2021/08/16 05:11:37;;;;;;;9.20;6.80;;;;;;;16.02;100.00;99867.16;5060940;28;20222;-71
2021/08/16 05:14:03;;;;;;;6.90;6.13;;;;;;;16.09;100.00;99863.22;5068036;28;20219;-71
2021/08/16 05:16:30;;;;;;;7.47;5.67;;;;;;;16.16;100.00;99862.81;5064396;28;20202;-71
2021/08/16 05:18:57;;;;;;;8.87;6.47;;;;;;;16.18;100.00;99856.53;5068044;28;20216;-72
2021/08/16 05:21:24;;;;;;;8.47;5.53;;;;;;;16.24;100.00;99871.09;5066263;28;20645;-71
2021/08/16 05:23:51;;;;;;;6.93;5.77;;;;;;;16.29;100.00;99869.03;5068251;28;20599;-71
2021/08/16 05:26:18;;;;;;;6.70;5.77;;;;;;;16.32;100.00;99863.53;5067034;28;20863;-71
2021/08/16 05:28:44;;;;;;;7.03;5.50;;;;;;;16.33;100.00;99873.16;5069883;28;20243;-71
2021/08/16 05:31:11;;;;;;;9.60;5.50;;;;;;;16.32;100.00;99866.19;5072168;28;20272;-71
2021/08/16 05:33:37;;;;;;;6.97;5.20;;;;;;;16.35;100.00;99876.53;5067683;28;20209;-72
2021/08/16 05:36:04;;;;;;;6.23;5.20;;;;;;;16.36;100.00;99874.72;5068223;28;20210;-71
2021/08/16 05:38:30;;;;;;;8.43;5.50;;;;;;;16.38;100.00;99876.34;5062391;28;20203;-71
2021/08/16 05:40:58;;;;;;;7.80;5.40;;;;;;;16.45;100.00;99861.84;5057965;28;20226;-71
2021/08/16 05:43:24;;;;;;;6.30;5.00;;;;;;;16.58;100.00;99866.34;5059196;28;20670;-71
2021/08/16 05:45:51;;;;;;;7.40;5.23;;;;;;;16.75;100.00;99866.13;5064037;28;20203;-71
2021/08/16 05:48:17;;;;;;;6.50;4.80;;;;;;;16.91;100.00;99865.19;5064442;28;20221;-71
2021/08/16 05:50:44;;;;;;;5.97;4.40;;;;;;;17.06;100.00;99865.97;5064915;28;20762;-71
2021/08/16 05:53:11;;;;;;;6.33;4.43;;;;;;;17.14;100.00;99861.88;5069324;28;20217;-71
2021/08/16 05:55:37;;;;;;;5.83;4.70;;;;;;;17.27;100.00;99871.59;5065584;28;20685;-71
2021/08/16 05:58:05;;;;;;;10.17;4.63;;;;;;;17.32;98.71;99870.34;5071236;28;20206;-71
2021/08/16 06:00:32;;;;;;;6.67;4.70;;;;;;;17.39;98.65;99865.53;5066452;28;20225;-71
2021/08/16 06:02:58;;;;;;;5.63;4.40;;;;;;;17.47;98.06;99870.31;5066539;28;20203;-71
2021/08/16 06:05:25;;;;;;;6.63;4.50;;;;;;;17.66;97.28;99872.53;5063602;28;20198;-71
2021/08/16 06:07:51;;;;;;;4.77;4.00;;;;;;;17.86;95.49;99881.75;5065119;28;20305;-71
2021/08/16 06:10:17;;;;;;;8.47;4.57;;;;;;;18.02;95.71;99876.28;5070526;28;20223;-72
2021/08/16 06:12:44;;;;;;;7.90;4.17;;;;;;;18.14;94.38;99876.25;5064053;28;20199;-71
2021/08/16 06:15:12;;;;;;;6.97;4.33;;;;;;;18.27;92.20;99873.59;5070970;28;20695;-71
2021/08/16 06:17:40;;;;;;;6.07;4.37;;;;;;;18.43;92.63;99870.72;5069870;28;20250;-71
2021/08/16 06:20:10;;;;;;;4.97;3.83;;;;;;;18.60;90.00;99876.63;5066315;28;20230;-71
2021/08/16 06:22:38;;;;;;;5.03;4.07;;;;;;;18.73;89.19;99874.75;5060032;28;20240;-71
2021/08/16 06:25:05;;;;;;;4.17;3.60;;;;;;;18.88;89.52;99880.78;5066147;28;20203;-71
2021/08/16 06:27:31;;;;;;;5.47;4.13;;;;;;;18.99;88.17;99878.19;5072204;28;20202;-72
2021/08/16 06:29:57;;;;;;;6.43;3.50;;;;;;;19.09;88.22;99873.94;5059602;28;20226;-71
2021/08/16 06:32:25;;;;;;;5.27;3.60;;;;;;;19.20;86.90;99882.88;5062172;28;20214;-72
2021/08/16 06:34:52;;;;;;;5.47;4.23;;;;;;;19.29;86.69;99880.41;5062472;28;20214;-71
2021/08/16 06:37:18;;;;;;;5.67;3.97;;;;;;;19.43;84.19;99886.44;5068978;28;20581;-72
2021/08/16 06:39:46;;;;;;;6.37;3.70;;;;;;;19.52;82.97;99885.75;5059647;28;20223;-71
2021/08/16 06:42:12;;;;;;;6.03;3.17;;;;;;;19.66;83.80;99877.63;5064972;28;20206;-71
2021/08/16 06:44:38;;;;;;;5.27;3.73;;;;;;;19.79;83.89;99877.56;5066356;28;20735;-71
2021/08/16 06:47:05;;;;;;;5.23;3.73;;;;;;;20.02;81.55;99874.94;5059992;28;20217;-72
2021/08/16 06:49:32;;;;;;;3.80;3.40;;;;;;;20.14;79.95;99881.06;5064793;28;20206;-72
2021/08/16 06:51:59;;;;;;;3.60;3.30;;;;;;;20.28;78.99;99878.22;5055419;28;20856;-71
2021/08/16 06:54:25;;;;;;;6.80;3.40;;;;;;;20.43;77.06;99886.72;5068290;28;20222;-72
2021/08/16 06:56:52;;;;;;;6.80;3.00;;;;;;;20.60;77.65;99877.47;5062382;28;20233;-71
2021/08/16 06:59:18;;;;;;;4.17;3.00;;;;;;;20.74;73.98;99874.56;5065028;28;20197;-72
2021/08/16 07:01:45;;;;;;;3.90;3.10;;;;;;;20.92;74.86;99888.13;5064628;28;20236;-71
2021/08/16 07:04:11;;;;;;;3.80;3.23;;;;;;;21.06;75.54;99886.19;5067812;28;20207;-71
2021/08/16 07:06:39;;;;;;;4.40;3.00;;;;;;;21.19;73.28;99886.84;5065233;28;20202;-72
2021/08/16 07:09:05;;;;;;;3.43;2.80;;;;;;;21.32;71.87;99898.13;5063241;28;20214;-71
2021/08/16 07:11:32;;;;;;;4.00;3.23;;;;;;;21.47;72.30;99892.53;5064574;28;20309;-72
2021/08/16 07:13:58;;;;;;;4.77;2.93;;;;;;;21.48;70.58;99900.38;5062030;28;20678;-72
2021/08/16 07:16:25;;;;;;;4.67;2.83;;;;;;;21.55;72.34;99887.44;5067989;28;20200;-72
2021/08/16 07:18:51;;;;;;;3.43;2.93;;;;;;;21.66;70.33;99887.38;5055044;28;20202;-72
2021/08/16 07:21:17;;;;;;;3.50;2.73;;;;;;;21.85;70.81;99891.13;5062887;28;20223;-71
2021/08/16 07:23:45;;;;;;;4.63;3.37;;;;;;;21.94;68.27;99906.25;5067453;28;20583;-72
2021/08/16 07:26:11;;;;;;;5.33;2.90;;;;;;;21.99;69.40;99905.88;5059416;28;20210;-72
2021/08/16 07:28:38;;;;;;;3.83;2.83;;;;;;;22.12;70.05;99909.97;5060549;28;20222;-72
2021/08/16 07:31:05;;;;;;;3.80;2.90;;;;;;;22.31;68.97;99913.75;5061024;28;20290;-71
2021/08/16 07:33:32;;;;;;;6.00;2.93;;;;;;;22.52;68.55;99907.56;5066790;28;20213;-72
2021/08/16 07:35:59;;;;;;;3.97;2.60;;;;;;;22.76;66.53;99902.72;5061232;28;20203;-72
2021/08/16 07:38:25;;;;;;;2.83;2.60;;;;;;;22.94;68.45;99908.22;5060071;28;20201;-71
2021/08/16 07:40:53;;;;;;;3.47;2.70;;;;;;;;;;5062154;28;20849;-71
2021/08/16 07:43:20;;;;;;;2.63;2.40;;;;;;;23.31;65.62;99906.75;5063195;28;20207;-72
2021/08/16 07:45:47;;;;;;;3.83;2.43;;;;;;;23.35;61.71;99924.09;5065353;28;20266;-72
2021/08/16 07:48:13;;;;;;;2.95;2.13;;;;;;;23.49;61.54;99934.31;5067253;28;20198;-72
2021/08/16 07:50:40;;;;;;;3.03;2.37;;;;;;;23.40;61.38;99932.50;5060343;28;20226;-72
2021/08/16 07:53:07;;;;;;;3.00;2.30;;;;;;;23.50;61.30;99932.47;5060710;28;20215;-72
2021/08/16 07:55:34;;;;;;;6.38;2.35;;;;;;;23.84;61.90;99932.91;5068778;28;20203;-72
2021/08/16 07:58:01;;;;;;;6.07;2.55;;;;;;;23.93;59.74;99939.22;5064094;28;20205;-72
2021/08/16 08:00:28;;;;;;;3.58;2.30;;;;;;;23.89;59.52;99937.81;5065190;28;20222;-72
2021/08/16 08:02:54;;;;;;;4.75;2.20;;;;;;;23.96;59.62;99938.94;5063266;28;20690;-71
2021/08/16 08:05:22;;;;;;;4.85;2.38;;;;;;;23.91;60.47;99939.34;5066635;28;20202;-71
2021/08/16 08:07:50;;;;;;;2.53;2.25;;;;;;;23.80;60.96;99940.34;5060367;28;20211;-72
2021/08/16 08:10:18;;;;;;;2.83;2.50;;;;;;;23.80;60.02;99943.00;5067246;28;20226;-72
2021/08/16 08:12:46;;;;;;;2.85;2.30;;;;;;;23.80;61.21;99940.34;5068006;28;20578;-72
2021/08/16 08:15:15;;;;;;;3.83;2.28;;;;;;;24.05;59.55;99938.06;5061363;28;20211;-72
2021/08/16 08:17:42;;;;;;;5.35;2.65;;;;;;;24.28;58.91;99935.06;5066687;28;20206;-72
2021/08/16 08:20:10;;;;;;;4.28;2.08;;;;;;;24.33;58.29;99940.78;5059387;28;20587;-72
2021/08/16 08:22:36;;;;;;;3.42;2.47;;;;;;;24.44;59.61;99929.13;5061351;28;20664;-72
2021/08/16 08:25:04;;;;;;;3.90;2.70;;;;;;;24.45;58.97;99944.94;5061036;28;20570;-72
2021/08/16 08:27:31;;;;;;;3.35;2.17;;;;;;;24.51;58.25;99941.69;5065778;28;20709;-71
2021/08/16 08:29:57;;;;;;;2.55;2.13;;;;;;;24.68;59.33;99950.78;5056183;28;20227;-72
2021/08/16 08:32:25;;;;;;;3.33;2.00;;;;;;;24.64;57.24;99948.53;5060461;28;20592;-71
2021/08/16 08:34:51;;;;;;;3.22;2.20;;;;;;;24.80;58.28;99947.91;5067900;28;20220;-72
2021/08/16 08:37:18;;;;;;;4.70;2.25;;;;;;;24.73;56.92;99945.84;5063835;28;20735;-72
2021/08/16 08:39:46;;;;;;;3.05;2.05;;;;;;;24.65;57.41;99942.22;5065290;28;20245;-71
2021/08/16 08:42:14;;;;;;;2.60;2.03;;;;;;;24.67;56.66;99946.41;5056796;28;20202;-71
2021/08/16 08:44:42;;;;;;;4.88;2.40;;;;;;;24.73;57.41;99943.16;5066312;28;20206;-71
2021/08/16 08:47:09;;;;;;;5.32;2.42;;;;;;;24.81;57.61;99939.75;5058678;28;20234;-72
2021/08/16 08:49:38;;;;;;;5.47;2.28;;;;;;;24.87;57.64;99938.31;5064529;28;20231;-71
2021/08/16 08:52:05;;;;;;;2.33;2.13;;;;;;;24.82;57.40;99941.44;5064840;28;20202;-72
2021/08/16 08:54:34;;;;;;;3.80;2.25;;;;;;;24.76;57.09;99942.84;5068053;28;20505;-72
2021/08/16 08:57:00;;;;;;;4.65;2.38;;;;;;;24.73;56.51;99944.97;5068376;28;20202;-71
2021/08/16 08:59:27;;;;;;;4.55;2.35;;;;;;;24.71;56.95;99947.81;5064646;28;20580;-72
2021/08/16 09:01:55;;;;;;;4.72;2.80;;;;;;;24.79;57.79;99946.22;5067067;28;20206;-73
2021/08/16 09:04:22;;;;;;;4.05;2.30;;;;;;;24.74;56.18;99949.34;5068126;28;20215;-71
2021/08/16 09:06:50;;;;;;;2.22;2.03;;;;;;;24.81;56.29;99953.09;5068751;28;20206;-72
2021/08/16 09:09:16;;;;;;;3.33;2.15;;;;;;;24.83;56.00;99955.59;5063649;28;20218;-71
2021/08/16 09:11:47;;;;;;;4.38;2.50;;;;;;;24.90;55.75;99964.69;5063237;28;20230;-72
2021/08/16 09:14:13;;;;;;;2.88;2.33;;;;;;;24.69;54.92;99957.75;5060632;28;20726;-72
2021/08/16 09:16:40;;;;;;;3.60;2.60;;;;;;;24.82;55.85;99954.78;5071913;28;20213;-72
2021/08/16 09:19:16;;;;;;;4.53;2.45;;;;;;;25.03;55.87;99951.84;5061321;28;20300;-72
2021/08/16 09:21:45;;;;;;;4.90;2.67;;;;;;;24.96;54.04;99958.78;5063550;28;20233;-71
2021/08/16 09:24:13;;;;;;;3.08;2.53;;;;;;;25.04;55.21;99963.34;5067494;28;20298;-72
2021/08/16 09:26:43;;;;;;;4.75;2.78;;;;;;;24.95;52.97;99965.91;5067452;28;20202;-72
2021/08/16 09:29:11;;;;;;;3.25;2.30;;;;;;;25.00;54.24;99962.81;5062010;28;20313;-72
2021/08/16 09:31:38;;;;;;;3.25;2.42;;;;;;;25.17;54.02;99954.97;5062845;28;20237;-72
2021/08/16 09:34:06;;;;;;;2.25;1.98;;;;;;;25.25;53.18;99953.25;5068356;28;20201;-72
2021/08/16 09:36:37;;;;;;;3.00;2.40;;;;;;;25.20;52.57;99957.34;5063811;28;20202;-71
2021/08/16 09:39:05;;;;;;;4.68;2.60;;;;;;;25.32;51.93;99948.16;5063734;28;20241;-71
2021/08/16 09:41:32;;;;;;;3.90;2.45;;;;;;;25.39;52.39;99959.91;5063570;28;20222;-71
2021/08/16 09:44:10;;;;;;;3.10;2.50;;;;;;;25.32;51.46;99948.16;5066689;28;20203;-72
2021/08/16 09:46:36;;;;;;;3.20;2.05;;;;;;;25.46;51.48;99952.97;5065407;28;20208;-72
2021/08/16 09:49:04;;;;;;;4.45;2.20;;;;;;;25.46;49.90;99960.97;5049580;28;20219;-72
2021/08/16 09:51:31;;;;;;;3.38;2.50;;;;;;;25.61;52.23;99950.59;5061388;28;20232;-72
2021/08/16 09:53:58;;;;;;;3.25;2.45;;;;;;;25.82;50.56;99949.41;5063798;28;20203;-72
2021/08/16 09:56:26;;;;;;;3.38;2.63;;;;;;;25.97;51.36;99953.22;5071213;28;20205;-72
2021/08/16 09:58:54;;;;;;;3.67;2.53;;;;;;;25.87;50.04;99953.31;5065437;28;20243;-72
2021/08/16 10:01:21;;;;;;;3.72;2.35;;;;;;;25.65;50.58;99957.31;5067909;28;20226;-72
2021/08/16 10:03:48;;;;;;;4.18;2.45;;;;;;;25.73;50.42;99947.69;5068472;28;20208;-72
2021/08/16 10:06:17;;;;;;;3.88;2.80;;;;;;;25.42;50.25;99943.59;5064404;28;20210;-71
2021/08/16 10:08:47;;;;;;;5.15;2.88;;;;;;;25.39;51.59;99938.56;5063372;28;20198;-72
2021/08/16 10:11:16;;;;;;;7.53;2.72;;;;;;;25.76;50.92;99936.69;5063822;28;20246;-72
2021/08/16 10:13:43;;;;;;;3.00;2.63;;;;;;;25.93;49.63;99946.50;5071613;28;20561;-72
2021/08/16 10:16:15;;;;;;;3.58;2.40;;;;;;;25.67;50.54;99933.94;5062346;28;20202;-72
2021/08/16 10:18:45;;;;;;;4.20;2.40;;;;;;;25.58;50.94;99924.22;5065861;28;20225;-71
2021/08/16 10:21:17;;;;;;;3.78;2.47;;;;;;;25.49;51.09;99919.81;5065887;28;20222;-72
2021/08/16 10:23:49;;;;;;;3.58;2.40;;;;;;;25.32;51.82;99924.97;5062231;28;20214;-73
2021/08/16 10:26:26;;;;;;;3.60;2.63;;;;;;;25.44;52.13;99906.09;5051197;28;20582;-72
2021/08/16 10:28:54;;;;;;;4.60;2.53;;;;;;;25.56;52.35;99899.50;5066777;28;20279;-73
2021/08/16 10:31:28;;;;;;;5.93;2.75;;;;;;;25.96;52.18;99895.50;5061519;28;20222;-72
2021/08/16 10:33:55;;;;;;;3.38;2.72;;;;;;;25.83;51.78;99900.38;5061299;28;20205;-72
2021/08/16 10:36:22;;;;;;;4.90;2.53;;;;;;;25.81;52.02;99894.34;5067180;28;20349;-73
2021/08/16 10:38:50;;;;;;;5.40;2.70;;;;;;;25.92;51.25;99890.59;5060913;28;20233;-72
2021/08/16 10:41:28;;;;;;;3.03;2.70;;;;;;;25.97;51.18;99890.97;5062803;28;20685;-72
2021/08/16 10:43:54;;;;;;;2.88;2.55;;;;;;;25.94;50.77;99893.97;5066371;28;20210;-73
2021/08/16 10:46:22;;;;;;;4.25;2.80;;;;;;;25.61;51.34;99905.22;5059907;28;20207;-71
2021/08/16 10:49:01;;;;;;;3.70;2.78;;;;;;;25.74;52.30;99896.81;5065888;28;20199;-72
2021/08/16 10:51:38;;;;;;;4.38;2.65;;;;;;;25.72;52.35;99885.44;5059638;28;20230;-72
2021/08/16 10:54:05;;;;;;;5.13;3.03;;;;;;;25.55;51.47;99891.66;5063931;28;20205;-72
2021/08/16 10:56:31;;;;;;;3.58;2.80;;;;;;;25.66;50.79;99878.06;5061773;28;20206;-72
2021/08/16 10:59:00;;;;;;;3.83;2.60;;;;;;;25.58;50.28;99884.19;5045013;28;20209;-72
2021/08/16 11:01:27;;;;;;;5.00;2.90;;;;;;;25.54;50.17;99895.31;5056572;28;20223;-72
2021/08/16 11:03:57;;;;;;;4.05;2.55;;;;;;;25.49;50.39;99895.78;5063704;28;20296;-72
2021/08/16 11:06:26;;;;;;;4.25;2.83;;;;;;;25.40;48.67;99896.69;5061922;28;20207;-72
2021/08/16 11:08:58;;;;;;;5.13;2.95;;;;;;;25.40;49.93;99905.56;5061908;28;20411;-72
2021/08/16 11:11:24;;;;;;;3.42;2.42;;;;;;;25.59;49.77;99901.03;5065461;28;20236;-72
2021/08/16 11:13:51;;;;;;;3.58;2.60;;;;;;;25.48;48.76;99905.59;5060176;28;20398;-71
2021/08/16 11:16:17;;;;;;;3.70;2.85;;;;;;;25.54;48.52;99905.97;5061034;28;20297;-71
2021/08/16 11:18:53;;;;;;;4.00;2.60;;;;;;;25.58;48.25;99900.19;5061762;28;20207;-72
2021/08/16 11:21:23;;;;;;;5.40;2.80;;;;;;;25.91;49.03;99910.25;5059889;28;20228;-72
2021/08/16 11:23:58;;;;;;;4.35;2.70;;;;;;;26.33;48.13;99905.03;5047538;28;20743;-72
2021/08/16 11:26:24;;;;;;;3.97;2.67;;;;;;;26.53;47.03;99910.97;5059255;28;20207;-72
2021/08/16 11:28:50;;;;;;;4.13;2.63;;;;;;;26.59;46.27;99893.44;5068066;28;20206;-72
2021/08/16 11:31:17;;;;;;;3.55;2.83;;;;;;;26.69;45.90;99904.88;5058927;28;20567;-72
2021/08/16 11:33:43;;;;;;;3.38;2.38;;;;;;;26.68;45.47;99907.72;5068143;28;20195;-72
2021/08/16 11:36:11;;;;;;;3.58;2.63;;;;;;;26.19;43.63;99901.13;5057226;28;20570;-71
2021/08/16 11:38:41;;;;;;;4.32;2.60;;;;;;;26.11;44.28;99910.94;5063820;28;20217;-72
2021/08/16 11:41:11;;;;;;;3.60;2.47;;;;;;;25.85;44.00;99909.06;5059995;28;20218;-72